sensor_id;sensor_type;location;lat;lon;timestamp;pressure;altitude;pressure_sealevel;temperature;humidity
6204;BME280;3135;42.602;23.468;2022-12-07T00:01:24;92932.03;;;4.08;100.00
6204;BME280;3135;42.602;23.468;2022-12-07T00:03:54;92952.94;;;4.32;100.00
6204;BME280;3135;42.602;23.468;2022-12-07T00:06:22;92951.75;;;4.23;100.00
6204;BME280;3135;42.602;23.468;2022-12-07T00:08:47;92960.31;;;4.30;100.00
6204;BME280;3135;42.602;23.468;2022-12-07T00:11:18;92970.22;;;4.40;100.00
6204;BME280;3135;42.602;23.468;2022-12-07T00:13:45;92969.13;;;4.35;100.00
6204;BME280;3135;42.602;23.468;2022-12-07T00:16:13;92967.63;;;4.23;100.00
6204;BME280;3135;42.602;23.468;2022-12-07T00:18:39;92964.88;;;4.13;100.00
6204;BME280;3135;42.602;23.468;2022-12-07T00:21:16;92948.59;;;4.21;100.00
6204;BME280;3135;42.602;23.468;2022-12-07T00:23:44;92946.59;;;4.11;100.00
6204;BME280;3135;42.602;23.468;2022-12-07T00:26:12;92953.44;;;4.29;100.00
6204;BME280;3135;42.602;23.468;2022-12-07T00:28:38;92950.06;;;4.33;100.00
6204;BME280;3135;42.602;23.468;2022-12-07T00:31:05;92952.25;;;4.42;100.00
6204;BME280;3135;42.602;23.468;2022-12-07T00:33:33;92925.88;;;4.25;100.00
6204;BME280;3135;42.602;23.468;2022-12-07T00:35:59;92939.66;;;4.27;100.00
6204;BME280;3135;42.602;23.468;2022-12-07T00:38:28;92945.63;;;4.17;100.00
6204;BME280;3135;42.602;23.468;2022-12-07T00:40:59;92921.88;;;4.00;100.00
6204;BME280;3135;42.602;23.468;2022-12-07T00:43:25;92940.22;;;4.07;100.00
6204;BME280;3135;42.602;23.468;2022-12-07T00:45:51;92929.25;;;3.98;100.00
6204;BME280;3135;42.602;23.468;2022-12-07T00:48:16;92940.22;;;4.07;100.00
6204;BME280;3135;42.602;23.468;2022-12-07T00:50:42;92930.31;;;3.97;100.00
6204;BME280;3135;42.602;23.468;2022-12-07T00:53:07;92935.97;;;4.06;100.00
6204;BME280;3135;42.602;23.468;2022-12-07T00:55:33;92934.00;;;3.96;100.00
6204;BME280;3135;42.602;23.468;2022-12-07T00:57:59;92950.66;;;4.19;100.00
6204;BME280;3135;42.602;23.468;2022-12-07T01:00:24;92916.78;;;4.16;100.00
6204;BME280;3135;42.602;23.468;2022-12-07T01:02:50;92926.19;;;4.06;100.00
6204;BME280;3135;42.602;23.468;2022-12-07T01:05:15;92921.31;;;3.98;100.00
6204;BME280;3135;42.602;23.468;2022-12-07T01:07:41;92914.75;;;4.01;100.00
6204;BME280;3135;42.602;23.468;2022-12-07T01:10:06;92927.16;;;4.22;100.00
6204;BME280;3135;42.602;23.468;2022-12-07T01:12:32;92917.03;;;4.14;100.00
6204;BME280;3135;42.602;23.468;2022-12-07T01:14:57;92929.00;;;3.78;100.00
6204;BME280;3135;42.602;23.468;2022-12-07T01:17:23;92906.25;;;3.99;100.00
6204;BME280;3135;42.602;23.468;2022-12-07T01:19:48;92910.56;;;4.05;100.00
6204;BME280;3135;42.602;23.468;2022-12-07T01:22:14;92917.25;;;4.13;100.00
6204;BME280;3135;42.602;23.468;2022-12-07T01:24:39;92910.38;;;4.12;100.00
6204;BME280;3135;42.602;23.468;2022-12-07T01:27:05;92924.28;;;4.24;100.00
6204;BME280;3135;42.602;23.468;2022-12-07T01:29:30;92911.34;;;4.27;100.00
6204;BME280;3135;42.602;23.468;2022-12-07T01:31:55;92889.53;;;4.15;100.00
6204;BME280;3135;42.602;23.468;2022-12-07T01:34:21;92917.53;;;4.33;100.00
6204;BME280;3135;42.602;23.468;2022-12-07T01:36:46;92907.44;;;4.08;100.00
6204;BME280;3135;42.602;23.468;2022-12-07T01:39:12;92880.59;;;3.99;100.00
6204;BME280;3135;42.602;23.468;2022-12-07T01:41:39;92929.59;;;4.24;100.00
6204;BME280;3135;42.602;23.468;2022-12-07T01:46:56;92926.41;;;4.27;100.00
6204;BME280;3135;42.602;23.468;2022-12-07T01:49:27;92927.47;;;4.26;100.00
6204;BME280;3135;42.602;23.468;2022-12-07T01:52:19;92920.09;;;4.06;100.00
6204;BME280;3135;42.602;23.468;2022-12-07T01:54:44;92915.13;;;4.09;100.00
6204;BME280;3135;42.602;23.468;2022-12-07T01:57:11;92889.13;;;4.01;100.00
6204;BME280;3135;42.602;23.468;2022-12-07T01:59:37;92916.28;;;4.19;100.00
6204;BME280;3135;42.602;23.468;2022-12-07T02:02:08;92901.72;;;4.16;100.00
6204;BME280;3135;42.602;23.468;2022-12-07T02:04:36;92914.50;;;4.24;100.00
6204;BME280;3135;42.602;23.468;2022-12-07T02:07:03;92877.09;;;3.94;100.00
6204;BME280;3135;42.602;23.468;2022-12-07T02:09:29;92889.66;;;4.03;100.00
6204;BME280;3135;42.602;23.468;2022-12-07T02:11:55;92909.38;;;4.18;100.00
6204;BME280;3135;42.602;23.468;2022-12-07T02:14:21;92880.81;;;4.15;100.00
6204;BME280;3135;42.602;23.468;2022-12-07T02:22:46;92905.22;;;4.22;100.00
6204;BME280;3135;42.602;23.468;2022-12-07T02:28:04;92881.56;;;4.10;100.00
6204;BME280;3135;42.602;23.468;2022-12-07T02:30:33;92901.16;;;4.14;100.00
6204;BME280;3135;42.602;23.468;2022-12-07T02:33:16;92871.13;;;4.03;100.00
6204;BME280;3135;42.602;23.468;2022-12-07T02:38:38;92884.69;;;4.07;100.00
6204;BME280;3135;42.602;23.468;2022-12-07T02:41:16;92901.59;;;4.06;100.00
6204;BME280;3135;42.602;23.468;2022-12-07T02:43:50;92896.31;;;4.06;100.00
6204;BME280;3135;42.602;23.468;2022-12-07T02:46:22;92874.25;;;3.95;100.00
6204;BME280;3135;42.602;23.468;2022-12-07T02:48:50;92893.66;;;4.06;100.00
6204;BME280;3135;42.602;23.468;2022-12-07T02:51:18;92889.66;;;4.03;100.00
6204;BME280;3135;42.602;23.468;2022-12-07T02:53:44;92889.16;;;4.06;100.00
6204;BME280;3135;42.602;23.468;2022-12-07T02:56:35;92885.03;;;4.16;100.00
6204;BME280;3135;42.602;23.468;2022-12-07T03:10:24;92867.97;;;4.01;100.00
6204;BME280;3135;42.602;23.468;2022-12-07T03:15:32;92880.50;;;3.89;100.00
6204;BME280;3135;42.602;23.468;2022-12-07T03:17:59;92853.50;;;3.65;100.00
6204;BME280;3135;42.602;23.468;2022-12-07T03:20:27;92810.97;;;3.45;100.00
6204;BME280;3135;42.602;23.468;2022-12-07T03:22:54;92874.91;;;4.07;100.00
6204;BME280;3135;42.602;23.468;2022-12-07T03:25:20;92870.72;;;3.90;100.00
6204;BME280;3135;42.602;23.468;2022-12-07T03:27:57;92863.34;;;3.92;100.00
6204;BME280;3135;42.602;23.468;2022-12-07T03:30:29;92843.00;;;3.48;100.00
6204;BME280;3135;42.602;23.468;2022-12-07T03:35:43;92846.78;;;3.57;100.00
6204;BME280;3135;42.602;23.468;2022-12-07T03:38:25;92859.97;;;3.74;100.00
6204;BME280;3135;42.602;23.468;2022-12-07T03:41:08;92864.53;;;3.62;100.00
6204;BME280;3135;42.602;23.468;2022-12-07T03:43:34;92855.34;;;3.65;100.00
6204;BME280;3135;42.602;23.468;2022-12-07T03:48:51;92842.88;;;3.60;100.00
6204;BME280;3135;42.602;23.468;2022-12-07T03:51:35;92844.84;;;3.70;100.00
6204;BME280;3135;42.602;23.468;2022-12-07T03:54:23;92870.44;;;3.86;100.00
6204;BME280;3135;42.602;23.468;2022-12-07T03:56:50;92851.59;;;3.61;100.00
6204;BME280;3135;42.602;23.468;2022-12-07T03:59:17;92852.06;;;3.57;100.00
6204;BME280;3135;42.602;23.468;2022-12-07T04:01:44;92855.22;;;3.76;100.00
6204;BME280;3135;42.602;23.468;2022-12-07T04:04:10;92862.91;;;3.78;100.00
6204;BME280;3135;42.602;23.468;2022-12-07T04:06:36;92850.75;;;3.77;100.00
6204;BME280;3135;42.602;23.468;2022-12-07T04:09:01;92858.44;;;3.78;100.00
6204;BME280;3135;42.602;23.468;2022-12-07T04:11:27;92831.91;;;3.51;100.00
6204;BME280;3135;42.602;23.468;2022-12-07T04:13:52;92848.22;;;3.65;100.00
6204;BME280;3135;42.602;23.468;2022-12-07T04:16:36;92847.84;;;3.78;100.00
6204;BME280;3135;42.602;23.468;2022-12-07T04:19:02;92841.78;;;3.78;100.00
6204;BME280;3135;42.602;23.468;2022-12-07T04:21:27;92852.38;;;3.61;100.00
6204;BME280;3135;42.602;23.468;2022-12-07T04:23:53;92846.94;;;3.68;100.00
6204;BME280;3135;42.602;23.468;2022-12-07T04:26:18;92856.72;;;3.67;100.00
6204;BME280;3135;42.602;23.468;2022-12-07T04:28:43;92849.44;;;3.57;100.00
6204;BME280;3135;42.602;23.468;2022-12-07T04:31:09;92865.66;;;3.44;100.00
6204;BME280;3135;42.602;23.468;2022-12-07T04:33:35;92868.78;;;3.41;100.00
6204;BME280;3135;42.602;23.468;2022-12-07T04:36:01;92834.19;;;3.43;100.00
6204;BME280;3135;42.602;23.468;2022-12-07T04:38:27;92842.78;;;3.33;100.00
6204;BME280;3135;42.602;23.468;2022-12-07T04:40:52;92852.78;;;3.31;100.00
6204;BME280;3135;42.602;23.468;2022-12-07T04:43:18;92872.66;;;3.55;100.00
6204;BME280;3135;42.602;23.468;2022-12-07T04:45:47;92874.75;;;3.53;100.00
6204;BME280;3135;42.602;23.468;2022-12-07T04:48:13;92864.28;;;3.42;100.00
6204;BME280;3135;42.602;23.468;2022-12-07T04:50:38;92871.34;;;3.36;100.00
6204;BME280;3135;42.602;23.468;2022-12-07T04:53:03;92856.22;;;3.31;100.00
6204;BME280;3135;42.602;23.468;2022-12-07T04:55:29;92853.91;;;3.18;100.00
6204;BME280;3135;42.602;23.468;2022-12-07T04:57:54;92852.66;;;3.21;100.00
6204;BME280;3135;42.602;23.468;2022-12-07T05:00:20;92859.38;;;3.12;100.00
6204;BME280;3135;42.602;23.468;2022-12-07T05:02:45;92783.28;;;2.70;100.00
6204;BME280;3135;42.602;23.468;2022-12-07T05:05:11;92849.28;;;3.08;100.00
6204;BME280;3135;42.602;23.468;2022-12-07T05:07:36;92874.97;;;3.13;100.00
6204;BME280;3135;42.602;23.468;2022-12-07T05:10:02;92861.75;;;3.30;100.00
6204;BME280;3135;42.602;23.468;2022-12-07T05:12:27;92826.28;;;2.87;100.00
6204;BME280;3135;42.602;23.468;2022-12-07T05:14:53;92866.47;;;3.28;100.00
6204;BME280;3135;42.602;23.468;2022-12-07T05:17:18;92872.16;;;3.20;100.00
6204;BME280;3135;42.602;23.468;2022-12-07T05:19:44;92859.53;;;3.22;100.00
6204;BME280;3135;42.602;23.468;2022-12-07T05:22:09;92859.34;;;3.28;100.00
6204;BME280;3135;42.602;23.468;2022-12-07T05:24:35;92849.03;;;3.27;100.00
6204;BME280;3135;42.602;23.468;2022-12-07T05:27:01;92857.22;;;3.47;100.00
6204;BME280;3135;42.602;23.468;2022-12-07T05:29:26;92856.28;;;3.37;100.00
6204;BME280;3135;42.602;23.468;2022-12-07T05:31:51;92826.78;;;3.23;100.00
6204;BME280;3135;42.602;23.468;2022-12-07T05:34:17;92859.28;;;3.23;100.00
6204;BME280;3135;42.602;23.468;2022-12-07T05:36:42;92849.75;;;3.22;100.00
6204;BME280;3135;42.602;23.468;2022-12-07T05:39:08;92871.28;;;3.31;100.00
6204;BME280;3135;42.602;23.468;2022-12-07T05:41:34;92864.56;;;3.23;100.00
6204;BME280;3135;42.602;23.468;2022-12-07T05:44:18;92863.69;;;3.18;100.00
6204;BME280;3135;42.602;23.468;2022-12-07T05:46:43;92843.47;;;3.06;100.00
6204;BME280;3135;42.602;23.468;2022-12-07T05:49:09;92860.31;;;3.22;100.00
6204;BME280;3135;42.602;23.468;2022-12-07T05:51:34;92867.84;;;3.14;100.00
6204;BME280;3135;42.602;23.468;2022-12-07T05:53:59;92876.16;;;3.39;100.00
6204;BME280;3135;42.602;23.468;2022-12-07T05:56:25;92854.19;;;3.17;100.00
6204;BME280;3135;42.602;23.468;2022-12-07T05:58:51;92844.00;;;3.08;100.00
6204;BME280;3135;42.602;23.468;2022-12-07T06:01:35;92856.97;;;3.27;100.00
6204;BME280;3135;42.602;23.468;2022-12-07T06:04:01;92852.47;;;3.27;100.00
6204;BME280;3135;42.602;23.468;2022-12-07T06:06:26;92846.72;;;3.30;100.00
6204;BME280;3135;42.602;23.468;2022-12-07T06:08:52;92850.22;;;3.36;100.00
6204;BME280;3135;42.602;23.468;2022-12-07T06:11:17;92837.75;;;3.31;100.00
6204;BME280;3135;42.602;23.468;2022-12-07T06:14:01;92845.97;;;3.35;100.00
6204;BME280;3135;42.602;23.468;2022-12-07T06:16:27;92846.38;;;3.27;100.00
6204;BME280;3135;42.602;23.468;2022-12-07T06:18:52;92857.28;;;3.30;100.00
6204;BME280;3135;42.602;23.468;2022-12-07T06:21:17;92854.78;;;3.24;100.00
6204;BME280;3135;42.602;23.468;2022-12-07T06:23:43;92870.38;;;3.42;100.00
6204;BME280;3135;42.602;23.468;2022-12-07T06:26:08;92870.22;;;3.49;100.00
6204;BME280;3135;42.602;23.468;2022-12-07T06:28:34;92854.03;;;3.45;100.00
6204;BME280;3135;42.602;23.468;2022-12-07T06:31:00;92852.44;;;3.44;100.00
6204;BME280;3135;42.602;23.468;2022-12-07T06:33:27;92839.34;;;3.32;100.00
6204;BME280;3135;42.602;23.468;2022-12-07T06:35:52;92858.34;;;3.51;100.00
6204;BME280;3135;42.602;23.468;2022-12-07T06:38:18;92855.31;;;3.43;100.00
6204;BME280;3135;42.602;23.468;2022-12-07T06:40:43;92872.78;;;3.66;100.00
6204;BME280;3135;42.602;23.468;2022-12-07T06:43:08;92867.63;;;3.54;100.00
6204;BME280;3135;42.602;23.468;2022-12-07T06:45:34;92876.56;;;3.70;100.00
6204;BME280;3135;42.602;23.468;2022-12-07T06:48:00;92833.72;;;3.29;100.00
6204;BME280;3135;42.602;23.468;2022-12-07T06:50:25;92863.69;;;3.56;100.00
6204;BME280;3135;42.602;23.468;2022-12-07T06:52:51;92861.16;;;3.67;100.00
6204;BME280;3135;42.602;23.468;2022-12-07T06:55:17;92869.84;;;3.84;100.00
6204;BME280;3135;42.602;23.468;2022-12-07T06:57:42;92877.75;;;4.01;100.00
6204;BME280;3135;42.602;23.468;2022-12-07T07:00:08;92880.91;;;4.03;100.00
6204;BME280;3135;42.602;23.468;2022-12-07T07:02:34;92886.94;;;4.20;100.00
6204;BME280;3135;42.602;23.468;2022-12-07T07:04:59;92881.13;;;3.96;100.00
6204;BME280;3135;42.602;23.468;2022-12-07T07:07:25;92869.28;;;4.04;100.00
6204;BME280;3135;42.602;23.468;2022-12-07T07:09:50;92884.03;;;4.22;100.00
6204;BME280;3135;42.602;23.468;2022-12-07T07:12:15;92880.06;;;4.19;100.00
6204;BME280;3135;42.602;23.468;2022-12-07T07:14:41;92864.88;;;4.09;100.00
6204;BME280;3135;42.602;23.468;2022-12-07T07:17:08;92892.91;;;4.10;100.00
6204;BME280;3135;42.602;23.468;2022-12-07T07:19:33;92858.50;;;4.05;100.00
6204;BME280;3135;42.602;23.468;2022-12-07T07:21:59;92873.56;;;4.32;100.00
6204;BME280;3135;42.602;23.468;2022-12-07T07:24:24;92862.06;;;4.43;100.00
6204;BME280;3135;42.602;23.468;2022-12-07T07:26:49;92891.25;;;4.53;100.00
6204;BME280;3135;42.602;23.468;2022-12-07T07:29:15;92887.63;;;4.59;100.00
6204;BME280;3135;42.602;23.468;2022-12-07T07:31:40;92885.50;;;4.56;100.00
6204;BME280;3135;42.602;23.468;2022-12-07T07:34:06;92874.81;;;4.51;100.00
6204;BME280;3135;42.602;23.468;2022-12-07T07:36:32;92886.13;;;4.69;100.00
6204;BME280;3135;42.602;23.468;2022-12-07T07:38:57;92890.78;;;4.56;100.00
6204;BME280;3135;42.602;23.468;2022-12-07T07:41:23;92909.53;;;4.82;100.00
6204;BME280;3135;42.602;23.468;2022-12-07T07:43:48;92882.06;;;4.61;100.00
6204;BME280;3135;42.602;23.468;2022-12-07T07:46:14;92911.66;;;4.80;100.00
6204;BME280;3135;42.602;23.468;2022-12-07T07:48:39;92901.81;;;4.75;100.00
6204;BME280;3135;42.602;23.468;2022-12-07T07:51:06;92902.59;;;4.76;100.00
6204;BME280;3135;42.602;23.468;2022-12-07T07:53:32;92903.22;;;4.88;100.00
6204;BME280;3135;42.602;23.468;2022-12-07T07:55:57;92879.22;;;4.68;100.00
6204;BME280;3135;42.602;23.468;2022-12-07T07:58:23;92877.84;;;4.92;100.00
6204;BME280;3135;42.602;23.468;2022-12-07T08:00:49;92878.88;;;4.86;100.00
6204;BME280;3135;42.602;23.468;2022-12-07T08:03:14;92861.88;;;4.82;100.00
6204;BME280;3135;42.602;23.468;2022-12-07T08:05:40;92865.00;;;5.06;100.00
6204;BME280;3135;42.602;23.468;2022-12-07T08:08:06;92861.22;;;4.97;100.00
6204;BME280;3135;42.602;23.468;2022-12-07T08:10:31;92884.69;;;5.20;100.00
6204;BME280;3135;42.602;23.468;2022-12-07T08:12:58;92886.78;;;5.13;100.00
6204;BME280;3135;42.602;23.468;2022-12-07T08:15:44;92881.69;;;5.06;100.00
6204;BME280;3135;42.602;23.468;2022-12-07T08:18:10;92895.31;;;5.25;100.00
6204;BME280;3135;42.602;23.468;2022-12-07T08:20:38;92896.66;;;5.23;100.00
6204;BME280;3135;42.602;23.468;2022-12-07T08:23:04;92896.69;;;5.28;100.00
6204;BME280;3135;42.602;23.468;2022-12-07T08:25:30;92891.38;;;5.28;100.00
6204;BME280;3135;42.602;23.468;2022-12-07T08:27:56;92895.47;;;5.46;100.00
6204;BME280;3135;42.602;23.468;2022-12-07T08:30:22;92889.56;;;5.33;100.00
6204;BME280;3135;42.602;23.468;2022-12-07T08:32:48;92887.31;;;5.52;100.00
6204;BME280;3135;42.602;23.468;2022-12-07T08:35:14;92890.22;;;5.51;100.00
6204;BME280;3135;42.602;23.468;2022-12-07T08:37:40;92890.03;;;5.68;100.00
6204;BME280;3135;42.602;23.468;2022-12-07T08:40:08;92886.63;;;5.72;100.00
6204;BME280;3135;42.602;23.468;2022-12-07T08:42:34;92879.69;;;5.61;100.00
6204;BME280;3135;42.602;23.468;2022-12-07T08:45:06;92882.06;;;5.62;100.00
6204;BME280;3135;42.602;23.468;2022-12-07T08:47:32;92871.09;;;5.44;100.00
6204;BME280;3135;42.602;23.468;2022-12-07T08:49:58;92857.50;;;5.35;100.00
6204;BME280;3135;42.602;23.468;2022-12-07T08:52:30;92880.97;;;5.58;100.00
6204;BME280;3135;42.602;23.468;2022-12-07T08:54:56;92881.56;;;5.66;100.00
6204;BME280;3135;42.602;23.468;2022-12-07T08:57:21;92867.25;;;5.67;100.00
6204;BME280;3135;42.602;23.468;2022-12-07T08:59:47;92881.59;;;5.71;100.00
6204;BME280;3135;42.602;23.468;2022-12-07T09:02:13;92858.22;;;5.68;100.00
6204;BME280;3135;42.602;23.468;2022-12-07T09:04:38;92874.97;;;5.73;100.00
6204;BME280;3135;42.602;23.468;2022-12-07T09:07:04;92869.63;;;5.68;100.00
6204;BME280;3135;42.602;23.468;2022-12-07T09:09:29;92858.28;;;5.78;100.00
6204;BME280;3135;42.602;23.468;2022-12-07T09:11:55;92855.50;;;6.00;100.00
6204;BME280;3135;42.602;23.468;2022-12-07T09:14:20;92843.00;;;5.95;100.00
6204;BME280;3135;42.602;23.468;2022-12-07T09:16:46;92857.91;;;6.11;100.00
6204;BME280;3135;42.602;23.468;2022-12-07T09:19:12;92843.84;;;6.11;100.00
6204;BME280;3135;42.602;23.468;2022-12-07T09:21:37;92862.78;;;6.35;100.00
6204;BME280;3135;42.602;23.468;2022-12-07T09:24:03;92845.25;;;6.34;100.00
6204;BME280;3135;42.602;23.468;2022-12-07T09:26:28;92839.94;;;6.24;100.00
6204;BME280;3135;42.602;23.468;2022-12-07T09:28:54;92858.53;;;6.34;100.00
6204;BME280;3135;42.602;23.468;2022-12-07T09:31:19;92852.72;;;6.47;100.00
6204;BME280;3135;42.602;23.468;2022-12-07T09:33:44;92845.28;;;6.44;100.00
6204;BME280;3135;42.602;23.468;2022-12-07T09:36:10;92845.84;;;6.56;100.00
6204;BME280;3135;42.602;23.468;2022-12-07T09:38:35;92827.78;;;6.53;100.00
6204;BME280;3135;42.602;23.468;2022-12-07T09:41:06;92839.47;;;6.52;100.00
6204;BME280;3135;42.602;23.468;2022-12-07T09:43:34;92820.63;;;6.59;100.00
6204;BME280;3135;42.602;23.468;2022-12-07T09:46:00;92815.59;;;6.73;100.00
6204;BME280;3135;42.602;23.468;2022-12-07T09:48:29;92839.53;;;6.98;100.00
6204;BME280;3135;42.602;23.468;2022-12-07T09:50:58;92826.25;;;6.83;100.00
6204;BME280;3135;42.602;23.468;2022-12-07T09:53:30;92814.00;;;6.82;100.00
6204;BME280;3135;42.602;23.468;2022-12-07T09:55:59;92816.66;;;7.12;100.00
6204;BME280;3135;42.602;23.468;2022-12-07T09:58:27;92815.59;;;6.93;100.00
6204;BME280;3135;42.602;23.468;2022-12-07T10:03:40;92825.72;;;7.01;100.00
6204;BME280;3135;42.602;23.468;2022-12-07T10:06:07;92803.38;;;7.12;100.00
6204;BME280;3135;42.602;23.468;2022-12-07T10:08:35;92807.13;;;7.01;100.00
6204;BME280;3135;42.602;23.468;2022-12-07T10:11:02;92821.44;;;7.10;100.00
6204;BME280;3135;42.602;23.468;2022-12-07T10:13:43;92803.66;;;7.16;100.00
6204;BME280;3135;42.602;23.468;2022-12-07T10:16:40;92806.03;;;7.12;100.00
6204;BME280;3135;42.602;23.468;2022-12-07T10:19:28;92814.00;;;7.12;100.00
6204;BME280;3135;42.602;23.468;2022-12-07T10:24:28;92795.66;;;7.16;100.00
6204;BME280;3135;42.602;23.468;2022-12-07T10:26:54;92799.13;;;7.16;100.00
6204;BME280;3135;42.602;23.468;2022-12-07T10:29:32;92764.31;;;7.08;100.00
6204;BME280;3135;42.602;23.468;2022-12-07T10:34:49;92785.78;;;7.42;100.00
6204;BME280;3135;42.602;23.468;2022-12-07T10:37:19;92774.34;;;7.47;100.00
6204;BME280;3135;42.602;23.468;2022-12-07T10:39:51;92753.63;;;7.28;100.00
6204;BME280;3135;42.602;23.468;2022-12-07T10:45:16;92772.44;;;7.57;100.00
6204;BME280;3135;42.602;23.468;2022-12-07T10:55:03;92753.69;;;7.93;100.00
6204;BME280;3135;42.602;23.468;2022-12-07T11:02:31;92763.00;;;7.96;100.00
6204;BME280;3135;42.602;23.468;2022-12-07T11:05:19;92761.63;;;7.98;100.00
6204;BME280;3135;42.602;23.468;2022-12-07T11:08:18;92756.38;;;7.88;100.00
6204;BME280;3135;42.602;23.468;2022-12-07T11:16:30;92748.38;;;7.93;100.00
6204;BME280;3135;42.602;23.468;2022-12-07T11:22:01;92736.38;;;7.96;100.00
6204;BME280;3135;42.602;23.468;2022-12-07T11:24:40;92727.25;;;8.12;100.00
6204;BME280;3135;42.602;23.468;2022-12-07T11:33:33;92722.16;;;8.15;100.00
6204;BME280;3135;42.602;23.468;2022-12-07T11:38:47;92716.88;;;8.10;100.00
6204;BME280;3135;42.602;23.468;2022-12-07T11:41:20;92700.84;;;8.20;100.00
6204;BME280;3135;42.602;23.468;2022-12-07T11:49:19;92701.28;;;8.38;100.00
6204;BME280;3135;42.602;23.468;2022-12-07T11:51:49;92685.78;;;8.45;100.00
6204;BME280;3135;42.602;23.468;2022-12-07T11:54:27;92687.41;;;8.36;100.00
6204;BME280;3135;42.602;23.468;2022-12-07T11:56:56;92682.38;;;8.39;100.00
6204;BME280;3135;42.602;23.468;2022-12-07T11:59:39;92678.56;;;8.06;100.00
6204;BME280;3135;42.602;23.468;2022-12-07T12:02:21;92670.84;;;8.10;100.00
6204;BME280;3135;42.602;23.468;2022-12-07T12:05:18;92687.63;;;8.05;100.00
6204;BME280;3135;42.602;23.468;2022-12-07T12:07:46;92673.94;;;8.22;100.00
6204;BME280;3135;42.602;23.468;2022-12-07T12:13:32;92678.03;;;8.09;100.00
6204;BME280;3135;42.602;23.468;2022-12-07T12:21:26;92685.50;;;8.02;100.00
6204;BME280;3135;42.602;23.468;2022-12-07T12:23:59;92681.13;;;8.22;100.00
6204;BME280;3135;42.602;23.468;2022-12-07T12:26:30;92650.91;;;8.02;100.00
6204;BME280;3135;42.602;23.468;2022-12-07T12:29:00;92652.16;;;8.15;100.00
6204;BME280;3135;42.602;23.468;2022-12-07T12:33:53;92651.41;;;8.09;100.00
6204;BME280;3135;42.602;23.468;2022-12-07T12:51:53;92649.31;;;8.06;100.00
6204;BME280;3135;42.602;23.468;2022-12-07T12:54:21;92616.94;;;7.89;100.00
6204;BME280;3135;42.602;23.468;2022-12-07T12:57:21;92651.75;;;8.32;100.00
6204;BME280;3135;42.602;23.468;2022-12-07T13:15:48;92627.44;;;8.14;100.00
6204;BME280;3135;42.602;23.468;2022-12-07T13:26:38;92651.97;;;8.06;100.00
6204;BME280;3135;42.602;23.468;2022-12-07T13:34:38;92650.31;;;8.15;100.00
6204;BME280;3135;42.602;23.468;2022-12-07T13:37:30;92652.16;;;8.15;100.00
6204;BME280;3135;42.602;23.468;2022-12-07T13:39:59;92644.81;;;8.02;100.00
6204;BME280;3135;42.602;23.468;2022-12-07T13:44:51;92650.91;;;8.02;100.00
6204;BME280;3135;42.602;23.468;2022-12-07T13:49:51;92644.53;;;8.03;100.00
6204;BME280;3135;42.602;23.468;2022-12-07T13:52:25;92642.94;;;8.02;100.00
6204;BME280;3135;42.602;23.468;2022-12-07T13:54:58;92639.47;;;8.02;100.00
6204;BME280;3135;42.602;23.468;2022-12-07T13:57:27;92646.56;;;7.77;100.00
6204;BME280;3135;42.602;23.468;2022-12-07T13:59:53;92622.38;;;7.74;100.00
6204;BME280;3135;42.602;23.468;2022-12-07T14:02:30;92613.63;;;7.68;100.00
6204;BME280;3135;42.602;23.468;2022-12-07T14:05:23;92605.06;;;7.76;100.00
6204;BME280;3135;42.602;23.468;2022-12-07T14:10:30;92624.53;;;7.66;100.00
6204;BME280;3135;42.602;23.468;2022-12-07T14:12:57;92602.88;;;7.44;100.00
6204;BME280;3135;42.602;23.468;2022-12-07T14:15:43;92609.56;;;7.36;100.00
6204;BME280;3135;42.602;23.468;2022-12-07T14:18:26;92612.47;;;7.40;100.00
6204;BME280;3135;42.602;23.468;2022-12-07T14:21:02;92634.25;;;7.37;100.00
6204;BME280;3135;42.602;23.468;2022-12-07T14:23:28;92643.78;;;7.43;100.00
6204;BME280;3135;42.602;23.468;2022-12-07T14:25:53;92635.06;;;7.37;100.00
6204;BME280;3135;42.602;23.468;2022-12-07T14:28:30;92650.69;;;7.54;100.00
6204;BME280;3135;42.602;23.468;2022-12-07T14:30:57;92645.22;;;7.25;100.00
6204;BME280;3135;42.602;23.468;2022-12-07T14:33:24;92635.38;;;7.31;100.00
6204;BME280;3135;42.602;23.468;2022-12-07T14:35:49;92641.50;;;7.21;100.00
6204;BME280;3135;42.602;23.468;2022-12-07T14:38:15;92634.34;;;7.16;100.00
6204;BME280;3135;42.602;23.468;2022-12-07T14:40:43;92626.97;;;7.03;100.00
6204;BME280;3135;42.602;23.468;2022-12-07T14:43:15;92631.22;;;6.99;100.00
6204;BME280;3135;42.602;23.468;2022-12-07T14:45:41;92641.88;;;6.89;100.00
6204;BME280;3135;42.602;23.468;2022-12-07T14:48:14;92648.75;;;6.95;100.00
6204;BME280;3135;42.602;23.468;2022-12-07T14:50:50;92646.66;;;6.97;100.00
6204;BME280;3135;42.602;23.468;2022-12-07T14:53:21;92636.84;;;6.93;100.00
6204;BME280;3135;42.602;23.468;2022-12-07T14:55:52;92650.94;;;6.68;100.00
6204;BME280;3135;42.602;23.468;2022-12-07T14:58:18;92641.94;;;6.63;100.00
6204;BME280;3135;42.602;23.468;2022-12-07T15:00:44;92637.72;;;6.47;100.00
6204;BME280;3135;42.602;23.468;2022-12-07T15:03:09;92656.81;;;6.49;100.00
6204;BME280;3135;42.602;23.468;2022-12-07T15:05:36;92658.16;;;6.16;100.00
6204;BME280;3135;42.602;23.468;2022-12-07T15:08:02;92670.63;;;6.21;100.00
6204;BME280;3135;42.602;23.468;2022-12-07T15:10:31;92661.63;;;6.32;100.00
6204;BME280;3135;42.602;23.468;2022-12-07T15:13:02;92660.28;;;5.99;100.00
6204;BME280;3135;42.602;23.468;2022-12-07T15:15:47;92637.47;;;6.03;100.00
6204;BME280;3135;42.602;23.468;2022-12-07T15:18:14;92655.25;;;6.23;100.00
6204;BME280;3135;42.602;23.468;2022-12-07T15:20:40;92663.22;;;6.23;100.00
6204;BME280;3135;42.602;23.468;2022-12-07T15:23:05;92665.59;;;6.29;100.00
6204;BME280;3135;42.602;23.468;2022-12-07T15:25:31;92637.19;;;6.04;100.00
6204;BME280;3135;42.602;23.468;2022-12-07T15:27:56;92657.34;;;6.15;100.00
6204;BME280;3135;42.602;23.468;2022-12-07T15:30:22;92659.50;;;6.13;100.00
6204;BME280;3135;42.602;23.468;2022-12-07T15:32:52;92664.78;;;5.98;100.00
6204;BME280;3135;42.602;23.468;2022-12-07T15:35:18;92660.53;;;5.92;100.00
6204;BME280;3135;42.602;23.468;2022-12-07T15:37:43;92651.22;;;5.74;100.00
6204;BME280;3135;42.602;23.468;2022-12-07T15:40:09;92663.13;;;5.72;100.00
6204;BME280;3135;42.602;23.468;2022-12-07T15:42:35;92648.78;;;5.73;100.00